Saturday, January 20, 2018, 3:09 PM GMT
Back to Local

CYQI, Yarmouth, N. S.

Location: , , Canada Lat: 43.833
Local Time: 3:09 PM GMT (15:09 GMT) Lon: -66.083
Time Zone: GMT Elev: 141 ft

Show me the last for .
Show Coded

Time T Td Feel RH Dir Speed Gust Alt SLP Vis Weather Sky Remarks
2018-01-20 14:00 39 34 28 80 220° 17 26 29.63 29.64 10 FEW022 BKN110 OVC130 Pressure falling rapidly
2018-01-20 13:00 37 32 26 80 200° 17 23 29.65 29.65 9 FEW040 BKN120 OVC130 None
2018-01-20 12:00 37 32 26 80 220° 16 24 29.68 29.69 12 SCT023 BKN110 OVC250 None
2018-01-20 11:00 37 30 27 74 240° 15 21 29.71 29.72 15 OVC025 Pressure falling rapidly
2018-01-20 10:00 36 30 27 80 230° 14 - 29.75 29.76 15 OVC022 None
2018-01-20 09:00 36 30 28 80 220° 10 - 29.76 29.77 15 OVC021 None
2018-01-20 08:46 36 30 24 80 220° 14 22 29.77 29.78 15 OVC021 None
2018-01-20 08:00 34 30 23 86 220° 12 17 29.78 29.79 6 -SHSN OVC021 None
2018-01-20 07:00 32 30 24 92 190° 9 - 29.82 29.83 3 -SHSN VV005 None
2018-01-20 06:51 32 30 23 92 170° 12 - 29.82 29.83 3 -SHSN VV005 None
2018-01-20 06:24 30 30 21 100 170° 10 - 29.83 29.84 1 -SHSN VV003 None
2018-01-20 06:00 30 28 23 92 160° 8 - 29.84 29.85 3 -SHSN OVC004 None
2018-01-20 05:00 28 25 20 86 130° 8 - 29.85 29.86 8 -SHSN OVC020 None
2018-01-20 04:00 28 23 22 79 140° 6 - 29.89 29.90 15 OVC024 None
2018-01-20 03:00 27 23 21 86 150° 5 - 29.90 29.90 15 OVC027 None
2018-01-20 02:00 27 23 19 86 130° 7 - 29.90 29.90 15 OVC027 None
2018-01-20 01:00 27 21 21 79 170° 5 - 29.89 29.90 15 OVC027 None
2018-01-20 00:00 27 21 23 79 150° 3 - 29.90 29.91 15 OVC027 None
2018-01-19 23:00 27 21 - 79 190° 2 - 29.91 29.92 15 BKN027 None
2018-01-19 22:00 27 21 - 79 - Calm - 29.90 29.91 15 BKN028 None
2018-01-19 21:00 27 21 20 79 350° 6 - 29.89 29.90 15 BKN027 None
2018-01-19 20:00 28 19 20 68 350° 9 - 29.89 29.90 15 BKN029 BKN090 None
2018-01-19 19:00 28 21 19 74 350° 10 - 29.87 29.88 9 SCT026 SCT070 OVC110 None
2018-01-19 18:23 28 21 16 74 340° 13 18 29.87 29.88 9 FEW022 SCT091 OVC100 None
2018-01-19 18:02 28 21 18 74 330° 13 - 29.87 29.88 6 -SHSN SCT024 BKN070 BKN090 None
2018-01-19 18:00 28 21 18 74 340° 13 - 29.87 29.88 6 -SN SCT027 BKN070 BKN072 None
2018-01-19 17:27 28 23 17 79 330° 14 - 29.87 29.88 1 -SN VV018 None
2018-01-19 17:16 28 23 18 79 320° 13 - 29.87 29.88 1 -SN OVC022 None
2018-01-19 17:13 28 23 19 79 320° 10 - 29.87 29.88 1 -SN OVC022 None
2018-01-19 17:00 28 21 20 74 330° 9 - 29.87 29.88 3 -SN OVC021 None
2018-01-19 16:52 28 21 20 74 340° 9 - 29.87 29.88 9 -SHSN OVC024 None
2018-01-19 16:00 27 21 20 79 330° 6 - 29.88 29.89 15 FEW020 BKN032 OVC070 None

Support USWX by starting your Amazon purchase here.